METAR Data
IDs: Format: Raw Decoded Include TAF

Data at: 0034 UTC 30 Nov 2022

KMGJ 292354Z AUTO 00000KT 10SM CLR M03/M05 A3026 RMK AO2 SLP253 T10281050 10039 21028 55004